Time,TemperatureF,DewpointF,PressureIn,WindDirection,WindDirectionDegrees,WindSpeedMPH,WindSpeedGustMPH,Humidity,HourlyPrecipIn,Conditions,Clouds,dailyrainin,SoftwareType,DateUTC
2013-05-28 00:14:00,61.4,49.0,30.19,SW,234,11.0,17.0,64,0.00,,,0.00,weatherlink.com 1.10,2013-05-28 04:14:00,
2013-05-28 00:29:00,61.1,50.0,30.19,SW,232,13.0,16.0,67,0.00,,,0.00,weatherlink.com 1.10,2013-05-28 04:29:00,
2013-05-28 00:44:00,60.7,50.0,30.20,WSW,238,9.0,13.0,68,0.00,,,0.00,weatherlink.com 1.10,2013-05-28 04:44:00,
2013-05-28 00:59:00,60.1,49.0,30.20,WSW,241,9.0,12.0,68,0.00,,,0.00,weatherlink.com 1.10,2013-05-28 04:59:00,
2013-05-28 01:14:00,59.7,50.0,30.20,WSW,243,10.0,11.0,70,0.00,,,0.00,weatherlink.com 1.10,2013-05-28 05:14:00,
2013-05-28 01:29:00,59.3,50.0,30.20,WSW,247,9.0,12.0,71,0.00,,,0.00,weatherlink.com 1.10,2013-05-28 05:29:00,
2013-05-28 01:44:00,58.9,49.0,30.20,WSW,247,9.0,12.0,71,0.00,,,0.00,weatherlink.com 1.10,2013-05-28 05:44:00,
2013-05-28 01:59:00,58.5,49.0,30.20,WSW,247,6.0,8.0,72,0.00,,,0.00,weatherlink.com 1.10,2013-05-28 05:59:00,
2013-05-28 02:14:00,58.3,49.0,30.20,WSW,247,4.0,8.0,72,0.00,,,0.00,weatherlink.com 1.10,2013-05-28 06:14:00,
2013-05-28 02:29:00,58.1,49.0,30.20,WSW,247,7.0,8.0,73,0.00,,,0.00,weatherlink.com 1.10,2013-05-28 06:29:00,
2013-05-28 02:44:00,57.7,49.0,30.19,WSW,247,5.0,7.0,72,0.00,,,0.00,weatherlink.com 1.10,2013-05-28 06:44:00,
2013-05-28 02:59:00,57.5,49.0,30.19,WSW,247,5.0,6.0,73,0.00,,,0.00,weatherlink.com 1.10,2013-05-28 06:59:00,
2013-05-28 03:14:00,57.3,49.0,30.19,WSW,247,3.0,6.0,73,0.00,,,0.00,weatherlink.com 1.10,2013-05-28 07:14:00,
2013-05-28 03:29:00,57.3,49.0,30.19,WSW,247,3.0,6.0,73,0.00,,,0.00,weatherlink.com 1.10,2013-05-28 07:29:00,
2013-05-28 03:44:00,57.5,49.0,30.19,WSW,247,6.0,9.0,74,0.00,,,0.00,weatherlink.com 1.10,2013-05-28 07:44:00,
2013-05-28 03:59:00,57.8,50.0,30.19,WSW,247,6.0,9.0,76,0.00,,,0.00,weatherlink.com 1.10,2013-05-28 07:59:00,
2013-05-28 04:14:00,58.0,50.0,30.19,WSW,247,5.0,10.0,76,0.00,,,0.00,weatherlink.com 1.10,2013-05-28 08:14:00,
2013-05-28 04:29:00,58.0,50.0,30.19,WSW,247,4.0,5.0,76,0.00,,,0.00,weatherlink.com 1.10,2013-05-28 08:29:00,
2013-05-28 04:44:00,58.0,51.0,30.19,WSW,247,6.0,7.0,77,0.00,,,0.00,weatherlink.com 1.10,2013-05-28 08:44:00,
2013-05-28 04:59:00,58.1,51.0,30.18,WSW,247,4.0,8.0,76,0.00,,,0.00,weatherlink.com 1.10,2013-05-28 08:59:00,
2013-05-28 05:14:00,57.8,50.0,30.18,WSW,247,0.0,2.0,76,0.00,,,0.00,weatherlink.com 1.10,2013-05-28 09:14:00,
2013-05-28 05:29:00,57.2,50.0,30.19,WSW,247,2.0,4.0,77,0.00,,,0.00,weatherlink.com 1.10,2013-05-28 09:29:00,
2013-05-28 05:44:00,57.1,50.0,30.19,WSW,247,0.0,2.0,78,0.00,,,0.00,weatherlink.com 1.10,2013-05-28 09:44:00,
2013-05-28 05:59:00,57.2,50.0,30.19,WSW,247,0.0,3.0,78,0.00,,,0.00,weatherlink.com 1.10,2013-05-28 09:59:00,
2013-05-28 06:14:00,57.4,51.0,30.20,WSW,247,1.0,2.0,79,0.00,,,0.00,weatherlink.com 1.10,2013-05-28 10:14:00,
2013-05-28 06:29:00,57.9,51.0,30.20,WSW,247,2.0,5.0,79,0.00,,,0.00,weatherlink.com 1.10,2013-05-28 10:29:00,
2013-05-28 06:44:00,58.1,52.0,30.20,WSW,247,4.0,6.0,79,0.00,,,0.00,weatherlink.com 1.10,2013-05-28 10:44:00,
2013-05-28 06:59:00,58.2,52.0,30.20,WSW,247,1.0,4.0,79,0.00,,,0.00,weatherlink.com 1.10,2013-05-28 10:59:00,
2013-05-28 07:14:00,58.5,52.0,30.20,WSW,247,1.0,2.0,79,0.00,,,0.00,weatherlink.com 1.10,2013-05-28 11:14:00,
2013-05-28 07:29:00,60.0,53.0,30.20,WSW,247,0.0,3.0,79,0.00,,,0.00,weatherlink.com 1.10,2013-05-28 11:29:00,
2013-05-28 07:44:00,60.5,54.0,30.20,WSW,247,5.0,6.0,78,0.00,,,0.00,weatherlink.com 1.10,2013-05-28 11:44:00,
2013-05-28 07:59:00,60.9,54.0,30.20,WSW,247,1.0,7.0,77,0.00,,,0.00,weatherlink.com 1.10,2013-05-28 11:59:00,
2013-05-28 08:15:00,60.1,53.0,30.21,WSW,247,3.0,8.0,77,0.00,,,0.00,weatherlink.com 1.10,2013-05-28 12:15:00,
2013-05-28 08:30:00,60.3,54.0,30.21,WSW,247,4.0,6.0,79,0.00,,,0.00,weatherlink.com 1.10,2013-05-28 12:30:00,
2013-05-28 08:45:00,60.3,54.0,30.21,WSW,247,5.0,7.0,79,0.00,,,0.00,weatherlink.com 1.10,2013-05-28 12:45:00,
2013-05-28 09:00:00,58.6,53.0,30.21,WSW,247,4.0,6.0,82,0.00,,,0.00,weatherlink.com 1.10,2013-05-28 13:00:00,
2013-05-28 09:15:00,58.3,54.0,30.21,WSW,247,3.0,5.0,84,0.00,,,0.00,weatherlink.com 1.10,2013-05-28 13:15:00,
2013-05-28 09:30:00,57.8,53.0,30.21,WSW,247,5.0,8.0,85,0.00,,,0.00,weatherlink.com 1.10,2013-05-28 13:30:00,
2013-05-28 09:45:00,57.1,53.0,30.21,WSW,247,6.0,9.0,87,0.00,,,0.00,weatherlink.com 1.10,2013-05-28 13:45:00,
2013-05-28 10:00:00,57.5,54.0,30.21,South,191,5.0,9.0,89,0.00,,,0.00,weatherlink.com 1.10,2013-05-28 14:00:00,
2013-05-28 10:15:00,57.8,55.0,30.21,South,190,3.0,7.0,89,0.00,,,0.00,weatherlink.com 1.10,2013-05-28 14:15:00,
2013-05-28 10:30:00,57.4,54.0,30.22,South,190,6.0,6.0,89,0.00,,,0.00,weatherlink.com 1.10,2013-05-28 14:30:00,
2013-05-28 10:45:00,57.3,55.0,30.22,South,190,4.0,6.0,90,0.00,,,0.00,weatherlink.com 1.10,2013-05-28 14:45:00,
2013-05-28 11:00:00,57.2,55.0,30.22,South,190,5.0,6.0,91,0.00,,,0.00,weatherlink.com 1.10,2013-05-28 15:00:00,
2013-05-28 11:15:00,57.3,55.0,30.22,South,190,5.0,8.0,91,0.01,,,0.01,weatherlink.com 1.10,2013-05-28 15:15:00,
2013-05-28 11:30:00,57.0,55.0,30.22,South,190,5.0,7.0,92,0.01,,,0.01,weatherlink.com 1.10,2013-05-28 15:30:00,
2013-05-28 11:45:00,56.8,55.0,30.22,South,190,6.0,9.0,92,0.01,,,0.01,weatherlink.com 1.10,2013-05-28 15:45:00,
2013-05-28 12:00:00,56.6,54.0,30.22,South,190,5.0,7.0,92,0.02,,,0.02,weatherlink.com 1.10,2013-05-28 16:00:00,
2013-05-28 12:15:00,56.8,55.0,30.21,South,190,4.0,8.0,93,0.01,,,0.02,weatherlink.com 1.10,2013-05-28 16:15:00,
2013-05-28 12:30:00,57.0,55.0,30.21,South,190,6.0,7.0,93,0.02,,,0.03,weatherlink.com 1.10,2013-05-28 16:30:00,
2013-05-28 12:45:00,57.1,55.0,30.20,South,188,5.0,6.0,93,0.02,,,0.03,weatherlink.com 1.10,2013-05-28 16:45:00,
2013-05-28 13:00:00,57.1,55.0,30.20,South,188,3.0,6.0,94,0.02,,,0.04,weatherlink.com 1.10,2013-05-28 17:00:00,
2013-05-28 13:15:00,56.6,55.0,30.19,South,179,7.0,9.0,94,0.03,,,0.05,weatherlink.com 1.10,2013-05-28 17:15:00,
2013-05-28 13:30:00,56.5,55.0,30.19,SSE,168,7.0,10.0,94,0.04,,,0.07,weatherlink.com 1.10,2013-05-28 17:30:00,
2013-05-28 13:45:00,56.7,55.0,30.19,SSE,168,3.0,7.0,94,0.05,,,0.08,weatherlink.com 1.10,2013-05-28 17:45:00,
2013-05-28 14:00:00,56.6,55.0,30.19,SSE,168,7.0,8.0,95,0.06,,,0.10,weatherlink.com 1.10,2013-05-28 18:00:00,
2013-05-28 14:15:00,56.6,55.0,30.18,South,169,6.0,10.0,95,0.07,,,0.12,weatherlink.com 1.10,2013-05-28 18:15:00,
2013-05-28 14:30:00,56.8,55.0,30.18,SSE,159,7.0,13.0,95,0.07,,,0.14,weatherlink.com 1.10,2013-05-28 18:30:00,
2013-05-28 14:45:00,56.4,55.0,30.17,SSE,163,8.0,11.0,95,0.10,,,0.18,weatherlink.com 1.10,2013-05-28 18:45:00,
2013-05-28 15:00:00,56.6,55.0,30.17,SSE,163,9.0,12.0,95,0.09,,,0.19,weatherlink.com 1.10,2013-05-28 19:00:00,
2013-05-28 15:15:00,56.6,56.0,30.15,SSE,157,5.0,16.0,96,0.10,,,0.22,weatherlink.com 1.10,2013-05-28 19:15:00,
2013-05-28 15:30:00,56.7,56.0,30.16,SSE,163,9.0,15.0,96,0.09,,,0.24,weatherlink.com 1.10,2013-05-28 19:30:00,
2013-05-28 15:45:00,56.6,56.0,30.15,SSE,161,6.0,12.0,96,0.06,,,0.24,weatherlink.com 1.10,2013-05-28 19:45:00,
2013-05-28 16:00:00,56.5,55.0,30.15,SSE,158,4.0,10.0,96,0.04,,,0.24,weatherlink.com 1.10,2013-05-28 20:00:00,
2013-05-28 16:15:00,56.6,56.0,30.16,SSE,165,4.0,10.0,96,0.02,,,0.24,weatherlink.com 1.10,2013-05-28 20:15:00,
2013-05-28 16:30:00,57.2,56.0,30.16,SSE,165,4.0,8.0,96,0.08,,,0.32,weatherlink.com 1.10,2013-05-28 20:30:00,
2013-05-28 16:45:00,57.8,57.0,30.16,South,175,5.0,11.0,96,0.08,,,0.32,weatherlink.com 1.10,2013-05-28 20:45:00,
2013-05-28 17:00:00,57.5,56.0,30.15,SSE,163,7.0,10.0,96,0.13,,,0.37,weatherlink.com 1.10,2013-05-28 21:00:00,
2013-05-28 17:15:00,56.8,56.0,30.14,SSE,164,6.0,9.0,96,0.14,,,0.38,weatherlink.com 1.10,2013-05-28 21:15:00,
2013-05-28 17:30:00,57.2,56.0,30.14,South,169,5.0,12.0,96,0.06,,,0.38,weatherlink.com 1.10,2013-05-28 21:30:00,
2013-05-28 17:45:00,56.6,56.0,30.14,South,169,6.0,12.0,96,0.06,,,0.38,weatherlink.com 1.10,2013-05-28 21:45:00,
2013-05-28 18:00:00,56.3,55.0,30.13,South,169,4.0,13.0,96,0.01,,,0.38,weatherlink.com 1.10,2013-05-28 22:00:00,
2013-05-28 18:15:00,56.4,55.0,30.14,South,173,3.0,10.0,96,0.00,,,0.38,weatherlink.com 1.10,2013-05-28 22:15:00,
2013-05-28 18:30:00,56.1,55.0,30.12,South,170,7.0,9.0,96,0.02,,,0.40,weatherlink.com 1.10,2013-05-28 22:30:00,
2013-05-28 18:46:00,56.0,55.0,30.12,South,170,5.0,7.0,96,0.02,,,0.40,weatherlink.com 1.10,2013-05-28 22:46:00,
2013-05-28 19:01:00,57.0,56.0,30.12,South,170,4.0,8.0,97,0.02,,,0.40,weatherlink.com 1.10,2013-05-28 23:01:00,
2013-05-28 19:16:00,58.5,58.0,30.13,South,170,3.0,6.0,97,0.02,,,0.40,weatherlink.com 1.10,2013-05-28 23:16:00,
2013-05-28 19:31:00,59.9,59.0,30.13,South,170,4.0,9.0,97,0.00,,,0.40,weatherlink.com 1.10,2013-05-28 23:31:00,
2013-05-28 19:46:00,61.5,61.0,30.13,South,173,6.0,8.0,97,0.00,,,0.40,weatherlink.com 1.10,2013-05-28 23:46:00,
2013-05-28 20:01:00,60.7,59.0,30.12,South,173,3.0,5.0,95,0.00,,,0.40,weatherlink.com 1.10,2013-05-29 00:01:00,
2013-05-28 20:16:00,59.4,58.0,30.12,South,173,5.0,5.0,96,0.00,,,0.40,weatherlink.com 1.10,2013-05-29 00:16:00,
2013-05-28 20:31:00,58.6,58.0,30.12,South,173,5.0,5.0,96,0.00,,,0.40,weatherlink.com 1.10,2013-05-29 00:31:00,
2013-05-28 20:46:00,58.0,57.0,30.12,South,173,4.0,5.0,96,0.00,,,0.40,weatherlink.com 1.10,2013-05-29 00:46:00,
2013-05-28 21:01:00,58.7,58.0,30.12,South,173,2.0,4.0,97,0.00,,,0.40,weatherlink.com 1.10,2013-05-29 01:01:00,
2013-05-28 21:16:00,57.1,56.0,30.12,South,173,1.0,4.0,96,0.00,,,0.40,weatherlink.com 1.10,2013-05-29 01:16:00,
2013-05-28 21:31:00,56.6,56.0,30.12,South,173,3.0,4.0,96,0.00,,,0.40,weatherlink.com 1.10,2013-05-29 01:31:00,
2013-05-28 21:46:00,56.2,55.0,30.13,South,173,3.0,4.0,96,0.00,,,0.40,weatherlink.com 1.10,2013-05-29 01:46:00,
2013-05-28 22:01:00,55.9,55.0,30.13,South,173,3.0,6.0,96,0.00,,,0.40,weatherlink.com 1.10,2013-05-29 02:01:00,
2013-05-28 22:16:00,56.0,55.0,30.12,South,173,3.0,5.0,96,0.00,,,0.40,weatherlink.com 1.10,2013-05-29 02:16:00,
2013-05-28 22:31:00,55.8,55.0,30.12,South,173,2.0,7.0,96,0.00,,,0.40,weatherlink.com 1.10,2013-05-29 02:31:00,
2013-05-28 22:46:00,55.7,55.0,30.13,South,173,2.0,4.0,96,0.00,,,0.40,weatherlink.com 1.10,2013-05-29 02:46:00,
2013-05-28 23:01:00,55.9,55.0,30.13,South,173,3.0,4.0,96,0.00,,,0.40,weatherlink.com 1.10,2013-05-29 03:01:00,
2013-05-28 23:16:00,55.8,55.0,30.12,South,173,5.0,6.0,96,0.00,,,0.40,weatherlink.com 1.10,2013-05-29 03:16:00,
2013-05-28 23:31:00,56.5,56.0,30.11,South,173,2.0,5.0,97,0.00,,,0.40,weatherlink.com 1.10,2013-05-29 03:31:00,
2013-05-28 23:46:00,57.5,57.0,30.11,South,173,0.0,3.0,97,0.00,,,0.40,weatherlink.com 1.10,2013-05-29 03:46:00,